Time;durP1;ratioP1;P1;durP2;ratioP2;P2;SDS_P1;SDS_P2;PMS_P1;PMS_P2;Temp;Humidity;BMP_temperature;BMP_pressure;BME280_temperature;BME280_humidity;BME280_pressure;Samples;Min_cycle;Max_cycle;Signal;HPM_P1;HPM_P2
2023/09/29 00:01:45;;;;;;;3.73;3.30;;;;;;;;;;5032305;28;20209;-79
2023/09/29 00:04:12;;;;;;;4.00;3.57;;;;;;;;;;5030237;28;20254;-79
2023/09/29 00:06:39;;;;;;;3.73;3.40;;;;;;;;;;5027443;28;20217;-79
2023/09/29 00:09:06;;;;;;;5.13;3.53;;;;;;;;;;5032905;28;20207;-80
2023/09/29 00:11:34;;;;;;;5.13;3.80;;;;;;;;;;5029305;28;20230;-81
2023/09/29 00:14:02;;;;;;;3.80;3.43;;;;;;;;;;5035918;28;20271;-80
2023/09/29 00:16:29;;;;;;;4.27;3.37;;;;;;;;;;5036486;28;20935;-80
2023/09/29 00:18:56;;;;;;;4.57;3.77;;;;;;;;;;5034507;28;20231;-82
2023/09/29 00:21:24;;;;;;;4.30;3.80;;;;;;;;;;5031999;28;20214;-81
2023/09/29 00:23:51;;;;;;;5.43;3.90;;;;;;;;;;5037461;28;20302;-79
2023/09/29 00:26:20;;;;;;;3.87;3.50;;;;;;;;;;5027434;28;20222;-79
2023/09/29 00:28:47;;;;;;;5.73;4.00;;;;;;;;;;5029511;28;20212;-81
2023/09/29 00:31:18;;;;;;;7.00;3.70;;;;;;;;;;5040101;28;20606;-81
2023/09/29 00:33:46;;;;;;;3.60;3.30;;;;;;;;;;5013638;28;20589;-83
2023/09/29 00:36:14;;;;;;;4.57;4.10;;;;;;;;;;5045234;28;20638;-81
2023/09/29 00:38:41;;;;;;;4.30;3.77;;;;;;;;;;5054387;28;20234;-80
2023/09/29 00:41:08;;;;;;;5.10;4.10;;;;;;;;;;5034104;28;20226;-81
2023/09/29 00:43:35;;;;;;;4.90;4.40;;;;;;;;;;5033308;28;20723;-79
2023/09/29 00:46:04;;;;;;;4.97;4.13;;;;;;;;;;5043372;28;20243;-82
2023/09/29 00:48:33;;;;;;;5.03;4.00;;;;;;;;;;5029981;28;20210;-80
2023/09/29 00:51:01;;;;;;;3.97;3.60;;;;;;;;;;5030699;28;20210;-81
2023/09/29 00:53:28;;;;;;;5.43;3.87;;;;;;;;;;5033635;28;20286;-81
2023/09/29 00:55:56;;;;;;;4.30;3.70;;;;;;;;;;5042468;28;20254;-81
2023/09/29 00:58:23;;;;;;;4.13;3.40;;;;;;;;;;5034009;28;20693;-82
2023/09/29 01:00:52;;;;;;;4.53;3.33;;;;;;;;;;5030355;28;20226;-81
2023/09/29 01:03:19;;;;;;;3.60;3.30;;;;;;;;;;5033436;28;20212;-79
2023/09/29 01:05:49;;;;;;;6.27;3.90;;;;;;;;;;5031422;28;20755;-81
2023/09/29 01:08:19;;;;;;;3.90;3.57;;;;;;;;;;5041138;28;20210;-82
2023/09/29 01:10:48;;;;;;;5.10;3.20;;;;;;;;;;5022075;28;20721;-81
2023/09/29 01:13:16;;;;;;;4.30;3.40;;;;;;;;;;5025343;28;20203;-80
2023/09/29 01:15:44;;;;;;;5.63;3.57;;;;;;;;;;5033093;28;20254;-80
2023/09/29 01:18:11;;;;;;;4.17;3.60;;;;;;;;;;5030091;28;20241;-81
2023/09/29 01:20:39;;;;;;;4.03;3.33;;;;;;;;;;5031285;28;20206;-81
2023/09/29 01:23:07;;;;;;;4.50;3.30;;;;;;;;;;5017906;28;20234;-81
2023/09/29 01:25:35;;;;;;;5.30;3.30;;;;;;;;;;5021887;28;20222;-78
2023/09/29 01:28:05;;;;;;;4.60;3.70;;;;;;;;;;5034329;28;20215;-81
2023/09/29 01:30:32;;;;;;;3.40;3.10;;;;;;;;;;5036459;28;20233;-81
2023/09/29 01:33:00;;;;;;;5.27;3.20;;;;;;;;;;5019620;28;20725;-81
2023/09/29 01:35:28;;;;;;;3.30;3.00;;;;;;;;;;5038882;28;20223;-81
2023/09/29 01:37:59;;;;;;;3.17;2.87;;;;;;;;;;5046166;28;20238;-80
2023/09/29 01:40:27;;;;;;;3.77;3.30;;;;;;;;;;5030035;28;20203;-81
2023/09/29 01:42:56;;;;;;;4.53;3.40;;;;;;;;;;5017270;28;20290;-80
2023/09/29 01:45:23;;;;;;;4.10;3.40;;;;;;;;;;5012932;28;20270;-79
2023/09/29 01:47:51;;;;;;;4.10;3.70;;;;;;;;;;5031964;28;20207;-79
2023/09/29 01:50:20;;;;;;;4.80;3.80;;;;;;;;;;5019436;28;20205;-81
2023/09/29 01:52:48;;;;;;;5.53;4.60;;;;;;;;;;5036202;28;20234;-80
2023/09/29 01:55:16;;;;;;;8.13;5.37;;;;;;;;;;5037458;28;20223;-79
2023/09/29 01:57:44;;;;;;;6.97;4.20;;;;;;;;;;5034042;28;20270;-79
2023/09/29 02:00:19;;;;;;;5.80;3.63;;;;;;;;;;5029776;28;20775;-79
2023/09/29 02:02:47;;;;;;;6.63;3.67;;;;;;;;;;5034120;28;20197;-79
2023/09/29 02:05:18;;;;;;;3.60;2.97;;;;;;;;;;5029927;28;20252;-81
2023/09/29 02:07:46;;;;;;;4.03;3.37;;;;;;;;;;5033781;28;20486;-81
2023/09/29 02:10:13;;;;;;;5.17;4.00;;;;;;;;;;5026371;28;20203;-79
2023/09/29 02:12:46;;;;;;;4.97;3.90;;;;;;;;;;5013968;28;20207;-79
2023/09/29 02:15:15;;;;;;;6.30;3.97;;;;;;;;;;5019103;28;20226;-79
2023/09/29 02:17:44;;;;;;;5.77;3.67;;;;;;;;;;5030159;28;20198;-82
2023/09/29 02:20:17;;;;;;;4.43;3.27;;;;;;;;;;5032537;28;20282;-79
2023/09/29 02:22:44;;;;;;;4.67;4.17;;;;;;;;;;5026643;28;20219;-78
2023/09/29 02:25:15;;;;;;;5.33;4.20;;;;;;;;;;5024265;28;20274;-80
2023/09/29 02:27:43;;;;;;;4.40;3.60;;;;;;;;;;5017616;28;20199;-79
2023/09/29 02:30:11;;;;;;;5.30;4.13;;;;;;;;;;5018787;28;20647;-81
2023/09/29 02:32:40;;;;;;;6.03;4.00;;;;;;;;;;5008913;28;20204;-78
2023/09/29 02:35:08;;;;;;;4.33;3.47;;;;;;;;;;5027128;28;20228;-82
2023/09/29 02:37:36;;;;;;;4.20;3.20;;;;;;;;;;5018353;28;20203;-79
2023/09/29 02:40:05;;;;;;;4.23;3.63;;;;;;;;;;5027546;28;20233;-80
2023/09/29 02:42:32;;;;;;;7.50;3.77;;;;;;;;;;5013544;28;20203;-79
2023/09/29 02:45:01;;;;;;;5.57;3.90;;;;;;;;;;5025331;28;20290;-80
2023/09/29 02:47:30;;;;;;;5.23;3.83;;;;;;;;;;5012167;28;20208;-79
2023/09/29 02:49:57;;;;;;;4.30;3.90;;;;;;;;;;5027988;28;20214;-79
2023/09/29 02:52:25;;;;;;;5.63;4.00;;;;;;;;;;5032216;28;20203;-79
2023/09/29 02:54:54;;;;;;;4.23;3.83;;;;;;;;;;5028093;28;20297;-79
2023/09/29 02:57:22;;;;;;;6.37;4.03;;;;;;;;;;5014713;28;20199;-79
2023/09/29 02:59:49;;;;;;;6.40;3.97;;;;;;;;;;5034153;28;20227;-77
2023/09/29 03:02:17;;;;;;;5.00;4.10;;;;;;;;;;5029609;28;20587;-80
2023/09/29 03:04:46;;;;;;;5.53;3.90;;;;;;;;;;5020217;28;20215;-81
2023/09/29 03:07:14;;;;;;;5.07;4.57;;;;;;;;;;5022375;28;20258;-80
2023/09/29 03:09:42;;;;;;;7.60;4.70;;;;;;;;;;5028868;28;20211;-80
2023/09/29 03:12:09;;;;;;;6.87;3.97;;;;;;;;;;5031232;28;20206;-81
2023/09/29 03:14:37;;;;;;;5.03;4.30;;;;;;;;;;5030341;28;20272;-80
2023/09/29 03:17:04;;;;;;;4.13;3.70;;;;;;;;;;5024267;28;20221;-80
2023/09/29 03:19:31;;;;;;;7.13;4.33;;;;;;;;;;5032134;28;20273;-81
2023/09/29 03:21:59;;;;;;;6.87;4.50;;;;;;;;;;5031951;28;20219;-80
2023/09/29 03:24:29;;;;;;;6.83;4.30;;;;;;;;;;5030479;28;20223;-79
2023/09/29 03:26:57;;;;;;;6.27;4.37;;;;;;;;;;5021354;28;20207;-81
2023/09/29 03:29:24;;;;;;;4.97;4.20;;;;;;;;;;5019149;28;20432;-82
2023/09/29 03:31:53;;;;;;;5.37;4.60;;;;;;;;;;5024660;28;20245;-80
2023/09/29 03:34:21;;;;;;;6.30;4.93;;;;;;;;;;5030314;28;20223;-81
2023/09/29 03:36:50;;;;;;;7.03;5.07;;;;;;;;;;5034138;28;20666;-81
2023/09/29 03:39:18;;;;;;;5.43;4.90;;;;;;;;;;5019470;28;20218;-80
2023/09/29 03:41:46;;;;;;;5.77;4.77;;;;;;;;;;5017780;28;20293;-81
2023/09/29 03:44:13;;;;;;;6.60;4.93;;;;;;;;;;5023712;28;20817;-82
2023/09/29 03:46:40;;;;;;;7.27;5.03;;;;;;;;;;5018667;28;20733;-79
2023/09/29 03:49:11;;;;;;;5.60;4.70;;;;;;;;;;5030200;28;20214;-79
2023/09/29 03:51:38;;;;;;;5.57;4.97;;;;;;;;;;5036038;28;20221;-81
2023/09/29 03:54:07;;;;;;;5.10;4.60;;;;;;;;;;5036216;28;20571;-80
2023/09/29 03:56:34;;;;;;;7.57;5.00;;;;;;;;;;5012040;28;20792;-80
2023/09/29 03:59:01;;;;;;;5.43;4.93;;;;;;;;;;5037035;28;20309;-82
2023/09/29 04:01:29;;;;;;;9.23;5.17;;;;;;;;;;5037345;28;20203;-81
2023/09/29 04:03:56;;;;;;;10.10;5.20;;;;;;;;;;5009807;28;20221;-80
2023/09/29 04:06:25;;;;;;;9.23;5.07;;;;;;;;;;5013734;28;20258;-81
2023/09/29 04:08:54;;;;;;;5.70;4.93;;;;;;;;;;5039752;28;20213;-81
2023/09/29 04:11:22;;;;;;;7.33;5.50;;;;;;;;;;5013285;28;20199;-80
2023/09/29 04:13:49;;;;;;;5.40;4.87;;;;;;;;;;5042419;28;20242;-82
2023/09/29 04:16:17;;;;;;;8.40;5.27;;;;;;;;;;5040308;28;20365;-79
2023/09/29 04:18:44;;;;;;;7.50;5.80;;;;;;;;;;5034835;28;20225;-79
2023/09/29 04:21:15;;;;;;;6.50;5.77;;;;;;;;;;5043058;28;20275;-80
2023/09/29 04:23:46;;;;;;;6.03;5.30;;;;;;;;;;5036653;28;20229;-80
2023/09/29 04:26:22;;;;;;;6.63;5.40;;;;;;;;;;5037941;28;20219;-82
2023/09/29 04:28:52;;;;;;;8.00;5.67;;;;;;;;;;5027101;28;20301;-78
2023/09/29 04:31:20;;;;;;;6.43;5.40;;;;;;;;;;5030357;28;20203;-79
2023/09/29 04:33:47;;;;;;;6.37;5.40;;;;;;;;;;5035692;28;20202;-80
2023/09/29 04:36:14;;;;;;;8.13;5.57;;;;;;;;;;5013167;28;20227;-80
2023/09/29 04:38:41;;;;;;;8.80;6.03;;;;;;;;;;5013030;28;20750;-79
2023/09/29 04:41:09;;;;;;;7.53;5.73;;;;;;;;;;5034816;28;20230;-81
2023/09/29 04:43:36;;;;;;;7.60;5.47;;;;;;;;;;5032309;28;20792;-81
2023/09/29 04:46:03;;;;;;;6.75;5.47;;;;;;;;;;5038394;28;20231;-82
2023/09/29 04:48:31;;;;;;;6.35;5.53;;;;;;;;;;5037028;28;20249;-80
2023/09/29 04:50:58;;;;;;;7.55;5.53;;;;;;;;;;5032564;28;20203;-81
2023/09/29 04:53:26;;;;;;;7.80;5.85;;;;;;;;;;5046634;28;20209;-81
2023/09/29 04:55:53;;;;;;;9.80;6.00;;;;;;;;;;5041283;28;20277;-81
2023/09/29 04:58:20;;;;;;;8.20;5.90;;;;;;;;;;5036885;28;20210;-79
2023/09/29 05:00:47;;;;;;;7.65;5.85;;;;;;;;;;5040369;28;20273;-81
2023/09/29 05:03:14;;;;;;;7.73;6.67;;;;;;;;;;5038522;28;20206;-80
2023/09/29 05:05:42;;;;;;;7.43;6.18;;;;;;;;;;5043056;28;20317;-80
2023/09/29 05:08:09;;;;;;;7.63;6.43;;;;;;;;;;5019162;28;20214;-82
2023/09/29 05:10:36;;;;;;;8.77;6.80;;;;;;;;;;5037751;28;20257;-82
2023/09/29 05:13:04;;;;;;;9.63;6.82;;;;;;;;;;5036171;28;20207;-82
2023/09/29 05:15:32;;;;;;;8.73;7.22;;;;;;;;;;5039100;28;20222;-78
2023/09/29 05:17:59;;;;;;;10.67;7.60;;;;;;;;;;5034321;28;20207;-87
2023/09/29 05:20:27;;;;;;;10.77;7.47;;;;;;;;;;5039595;28;20230;-84
2023/09/29 05:22:54;;;;;;;8.73;7.37;;;;;;;;;;5004350;28;20248;-83
2023/09/29 05:25:21;;;;;;;7.53;6.73;;;;;;;;;;5032851;28;20223;-80
2023/09/29 05:27:48;;;;;;;8.73;7.03;;;;;;;;;;5035083;28;20684;-84
2023/09/29 05:30:18;;;;;;;9.60;7.53;;;;;;;;;;5014908;28;20217;-79
2023/09/29 05:32:45;;;;;;;8.55;7.20;;;;;;;;;;5035932;28;20289;-82
2023/09/29 05:35:13;;;;;;;8.93;7.45;;;;;;;;;;5023364;28;20292;-83
2023/09/29 05:37:40;;;;;;;8.57;7.43;;;;;;;;;;5040538;28;20214;-79
2023/09/29 05:40:08;;;;;;;7.80;6.82;;;;;;;;;;5011515;28;20254;-82
2023/09/29 05:42:35;;;;;;;9.20;6.82;;;;;;;;;;5034755;28;20215;-83
2023/09/29 05:45:20;;;;;;;10.27;7.28;;;;;;;;;;5022058;28;20225;-78
2023/09/29 05:47:49;;;;;;;11.70;7.07;;;;;;;;;;5027868;28;20713;-81
2023/09/29 05:50:16;;;;;;;9.00;7.22;;;;;;;;;;5012608;28;20616;-81
2023/09/29 05:52:47;;;;;;;8.68;7.18;;;;;;;;;;5006078;28;20207;-83
2023/09/29 05:55:34;;;;;;;7.43;6.63;;;;;;;;;;5023172;28;20241;-81
2023/09/29 05:58:02;;;;;;;9.90;7.10;;;;;;;;;;5021475;28;20755;-84
2023/09/29 06:00:30;;;;;;;7.97;6.70;;;;;;;;;;5004227;28;20887;-83
2023/09/29 06:02:59;;;;;;;9.18;7.05;;;;;;;;;;5024176;28;20207;-83
2023/09/29 06:05:27;;;;;;;8.32;6.82;;;;;;;;;;5022814;28;20312;-83
2023/09/29 06:07:54;;;;;;;12.20;6.57;;;;;;;;;;5022426;28;20241;-81
2023/09/29 06:10:25;;;;;;;8.63;6.63;;;;;;;;;;5026487;28;20203;-80
2023/09/29 06:12:52;;;;;;;7.60;6.55;;;;;;;;;;5022527;28;20209;-82
2023/09/29 06:15:19;;;;;;;9.07;7.20;;;;;;;;;;5025744;28;20242;-79
2023/09/29 06:17:47;;;;;;;7.63;6.82;;;;;;;;;;5029120;28;20202;-84
2023/09/29 06:20:14;;;;;;;8.63;6.55;;;;;;;;;;5043549;28;20816;-81
2023/09/29 06:22:41;;;;;;;9.57;6.55;;;;;;;;;;5037382;28;20886;-81
2023/09/29 06:25:09;;;;;;;8.68;6.30;;;;;;;;;;5010046;28;20241;-84
2023/09/29 06:27:36;;;;;;;7.82;5.65;;;;;;;;;;5015454;28;20195;-83
2023/09/29 06:30:04;;;;;;;6.70;5.90;;;;;;;;;;5031238;28;20207;-81
2023/09/29 06:32:31;;;;;;;8.27;6.22;;;;;;;;;;5042268;28;20688;-84
2023/09/29 06:34:59;;;;;;;9.82;5.57;;;;;;;;;;5016800;28;20233;-84
2023/09/29 06:37:26;;;;;;;6.28;5.28;;;;;;;;;;5029916;28;20207;-82
2023/09/29 06:39:53;;;;;;;7.55;6.40;;;;;;;;;;5018135;28;20218;-84
2023/09/29 06:42:21;;;;;;;8.52;5.70;;;;;;;;;;5042721;28;20207;-78
2023/09/29 06:44:48;;;;;;;7.20;5.78;;;;;;;;;;5039389;28;20235;-81
2023/09/29 06:47:16;;;;;;;7.50;5.60;;;;;;;;;;5014913;28;20198;-83
2023/09/29 06:49:43;;;;;;;6.85;5.65;;;;;;;;;;5022354;28;20210;-80
2023/09/29 06:52:11;;;;;;;8.48;6.20;;;;;;;;;;5027310;28;20290;-84
2023/09/29 06:54:38;;;;;;;7.30;5.53;;;;;;;;;;5028145;28;20231;-82
2023/09/29 06:57:06;;;;;;;7.65;5.18;;;;;;;;;;5034927;28;20215;-86
2023/09/29 06:59:33;;;;;;;9.20;5.18;;;;;;;;;;5032773;28;20225;-84
2023/09/29 07:02:01;;;;;;;5.72;4.50;;;;;;;;;;5027622;28;20257;-84
2023/09/29 07:04:28;;;;;;;7.68;4.38;;;;;;;;;;5039044;28;20215;-85
2023/09/29 07:06:56;;;;;;;5.20;4.50;;;;;;;;;;5033633;28;20202;-82
2023/09/29 07:09:23;;;;;;;6.15;4.28;;;;;;;;;;5011712;28;20214;-83
2023/09/29 07:11:50;;;;;;;6.05;4.80;;;;;;;;;;5033960;28;20211;-82
2023/09/29 07:14:18;;;;;;;4.70;3.92;;;;;;;;;;5023341;28;20214;-81
2023/09/29 07:16:49;;;;;;;4.68;4.25;;;;;;;;;;5013513;28;20202;-81
2023/09/29 07:19:17;;;;;;;4.30;3.88;;;;;;;;;;5013326;28;20346;-83
2023/09/29 07:21:44;;;;;;;4.97;4.10;;;;;;;;;;5016679;28;20194;-80
2023/09/29 07:24:11;;;;;;;5.53;4.13;;;;;;;;;;5022116;28;20211;-84
2023/09/29 07:26:38;;;;;;;8.57;3.90;;;;;;;;;;5037429;28;20405;-81
2023/09/29 07:29:06;;;;;;;5.15;3.85;;;;;;;;;;5032336;28;20452;-83
2023/09/29 07:31:38;;;;;;;5.35;3.83;;;;;;;;;;5025836;28;20218;-81
2023/09/29 07:34:05;;;;;;;3.97;3.67;;;;;;;;;;5027675;28;20203;-84
2023/09/29 07:36:33;;;;;;;4.38;3.97;;;;;;;;;;5001659;28;20206;-82
2023/09/29 07:39:00;;;;;;;4.35;3.83;;;;;;;;;;5008557;28;20262;-80
2023/09/29 07:41:28;;;;;;;4.70;3.63;;;;;;;;;;5025115;28;21595;-80
2023/09/29 07:43:56;;;;;;;4.50;3.85;;;;;;;;;;5020014;28;20204;-82
2023/09/29 07:46:24;;;;;;;4.63;3.30;;;;;;;;;;5026531;28;20202;-87
2023/09/29 07:48:51;;;;;;;5.35;3.65;;;;;;;;;;5014979;28;20203;-84
2023/09/29 07:51:18;;;;;;;5.70;3.45;;;;;;;;;;5025652;28;20210;-82
2023/09/29 07:53:46;;;;;;;4.15;3.30;;;;;;;;;;5022627;28;20211;-79
2023/09/29 07:56:13;;;;;;;3.58;3.22;;;;;;;;;;5010390;28;20222;-86
2023/09/29 07:58:41;;;;;;;4.97;3.40;;;;;;;;;;5005517;28;20219;-84
2023/09/29 08:01:08;;;;;;;5.82;3.65;;;;;;;;;;5029132;28;20271;-83
2023/09/29 08:03:36;;;;;;;3.33;2.97;;;;;;;;;;5014669;28;20199;-82
2023/09/29 08:06:04;;;;;;;3.90;3.30;;;;;;;;;;5024270;28;20219;-81
2023/09/29 08:08:31;;;;;;;5.63;3.13;;;;;;;;;;5004752;28;20207;-82
2023/09/29 08:10:59;;;;;;;5.78;3.30;;;;;;;;;;5024921;28;20848;-82
2023/09/29 08:13:26;;;;;;;8.45;3.35;;;;;;;;;;5022368;28;20234;-82
2023/09/29 08:15:53;;;;;;;3.80;3.38;;;;;;;;;;5021534;28;20234;-81
2023/09/29 08:18:20;;;;;;;9.35;3.53;;;;;;;;;;5022190;28;20215;-83
2023/09/29 08:20:54;;;;;;;5.15;3.33;;;;;;;;;;5023354;28;20226;-83
2023/09/29 08:23:22;;;;;;;3.70;3.20;;;;;;;;;;5028598;28;20231;-82
2023/09/29 08:25:49;;;;;;;4.20;3.08;;;;;;;;;;5016925;28;20355;-83
2023/09/29 08:28:16;;;;;;;4.13;3.15;;;;;;;;;;5023775;28;20250;-80
2023/09/29 08:30:43;;;;;;;3.95;3.30;;;;;;;;;;5017074;28;20289;-81
2023/09/29 08:33:11;;;;;;;4.45;3.22;;;;;;;;;;5016443;28;20230;-83
2023/09/29 08:35:57;;;;;;;5.47;3.45;;;;;;;;;;5030386;28;20238;-84
2023/09/29 08:38:25;;;;;;;5.38;3.22;;;;;;;;;;5004731;28;20277;-83
2023/09/29 08:40:54;;;;;;;6.20;3.50;;;;;;;;;;5026545;28;20254;-81
2023/09/29 08:43:22;;;;;;;4.18;3.67;;;;;;;;;;5027622;28;20333;-81
2023/09/29 08:45:49;;;;;;;6.28;3.58;;;;;;;;;;5030267;28;20225;-83
2023/09/29 08:48:17;;;;;;;4.38;3.65;;;;;;;;;;5019659;28;20211;-80
2023/09/29 08:50:55;;;;;;;4.03;3.55;;;;;;;;;;5011315;28;20227;-82
2023/09/29 08:53:25;;;;;;;3.42;3.08;;;;;;;;;;5028436;28;20234;-81
2023/09/29 08:55:56;;;;;;;4.78;3.80;;;;;;;;;;5022852;28;20597;-83
2023/09/29 08:58:23;;;;;;;6.90;4.05;;;;;;;;;;5005461;28;20446;-81
2023/09/29 09:00:51;;;;;;;4.30;3.20;;;;;;;;;;5021852;28;20294;-84
2023/09/29 09:03:19;;;;;;;3.97;3.58;;;;;;;;;;5028611;28;20206;-80
2023/09/29 09:05:47;;;;;;;5.20;3.40;;;;;;;;;;5024516;28;20223;-82
2023/09/29 09:08:15;;;;;;;4.30;3.30;;;;;;;;;;5029047;28;20673;-82
2023/09/29 09:10:43;;;;;;;5.30;3.53;;;;;;;;;;5027416;28;20265;-81
2023/09/29 09:13:10;;;;;;;5.57;3.63;;;;;;;;;;5024044;28;20206;-80
2023/09/29 09:15:37;;;;;;;4.00;3.30;;;;;;;;;;5033474;28;20276;-82
2023/09/29 09:18:04;;;;;;;5.38;3.50;;;;;;;;;;5000039;28;21856;-83
2023/09/29 09:20:33;;;;;;;3.83;3.42;;;;;;;;;;5021576;28;20309;-84
2023/09/29 09:23:01;;;;;;;6.78;3.40;;;;;;;;;;5029342;28;20301;-83
2023/09/29 09:25:35;;;;;;;4.57;3.42;;;;;;;;;;5023813;28;20236;-85
2023/09/29 09:28:04;;;;;;;6.18;3.50;;;;;;;;;;5002360;28;20226;-84
2023/09/29 09:30:37;;;;;;;5.07;3.35;;;;;;;;;;5023805;28;20257;-84
2023/09/29 09:33:05;;;;;;;5.25;3.60;;;;;;;;;;5035474;28;20206;-80
2023/09/29 09:35:37;;;;;;;6.28;3.35;;;;;;;;;;5011698;28;20303;-81
2023/09/29 09:38:05;;;;;;;4.82;3.38;;;;;;;;;;5039670;28;20201;-83
2023/09/29 09:40:32;;;;;;;3.63;3.30;;;;;;;;;;5032822;28;20231;-83
2023/09/29 09:43:07;;;;;;;5.65;3.58;;;;;;;;;;5017365;28;20211;-83
2023/09/29 09:45:44;;;;;;;4.30;3.10;;;;;;;;;;5011281;28;20720;-81
2023/09/29 09:48:16;;;;;;;3.90;3.20;;;;;;;;;;5020450;28;20405;-79
2023/09/29 09:50:46;;;;;;;4.72;3.08;;;;;;;;;;5024635;28;20269;-79
2023/09/29 09:53:14;;;;;;;4.25;3.28;;;;;;;;;;5028028;28;20628;-84
2023/09/29 09:55:53;;;;;;;4.65;3.03;;;;;;;;;;5032804;28;20230;-83
2023/09/29 09:58:23;;;;;;;4.32;2.92;;;;;;;;;;5028788;28;20245;-80
2023/09/29 10:00:54;;;;;;;3.25;2.90;;;;;;;;;;5018496;28;20222;-80
2023/09/29 10:03:23;;;;;;;5.57;3.47;;;;;;;;;;5024289;28;20884;-79
2023/09/29 10:05:52;;;;;;;5.50;3.00;;;;;;;;;;5018010;28;20237;-82
2023/09/29 10:08:29;;;;;;;5.30;3.28;;;;;;;;;;5026507;28;20207;-82
2023/09/29 10:11:11;;;;;;;3.05;2.75;;;;;;;;;;5030994;28;20747;-81
2023/09/29 10:13:40;;;;;;;4.85;2.90;;;;;;;;;;5023983;28;20223;-83
2023/09/29 10:16:07;;;;;;;2.92;2.60;;;;;;;;;;5014672;28;20405;-82
2023/09/29 10:18:36;;;;;;;3.72;2.72;;;;;;;;;;5015805;28;20246;-83
2023/09/29 10:21:07;;;;;;;4.60;3.00;;;;;;;;;;5019981;28;20219;-81
2023/09/29 10:23:50;;;;;;;4.45;2.75;;;;;;;;;;5031069;28;20569;-83
2023/09/29 10:26:20;;;;;;;5.55;2.80;;;;;;;;;;5018561;28;20852;-80
2023/09/29 10:28:48;;;;;;;5.97;3.03;;;;;;;;;;5025365;28;20221;-82
2023/09/29 10:31:19;;;;;;;3.17;2.85;;;;;;;;;;5021724;28;20202;-82
2023/09/29 10:33:51;;;;;;;3.80;3.00;;;;;;;;;;5025369;28;20210;-82
2023/09/29 10:36:23;;;;;;;4.47;3.10;;;;;;;;;;5029098;28;20228;-83
2023/09/29 10:38:51;;;;;;;3.38;3.08;;;;;;;;;;5018626;28;20233;-80
2023/09/29 10:41:19;;;;;;;4.32;2.85;;;;;;;;;;5021656;28;20263;-81
2023/09/29 10:44:03;;;;;;;5.07;3.10;;;;;;;;;;4997552;28;20682;-79
2023/09/29 10:46:31;;;;;;;4.20;3.00;;;;;;;;;;5026301;28;20243;-81
2023/09/29 10:48:59;;;;;;;4.00;2.83;;;;;;;;;;5010143;28;20261;-81
2023/09/29 10:51:28;;;;;;;3.75;3.20;;;;;;;;;;5008270;28;20560;-82
2023/09/29 10:54:02;;;;;;;5.97;2.67;;;;;;;;;;5011425;28;20238;-83
2023/09/29 10:56:30;;;;;;;3.50;3.17;;;;;;;;;;5030460;28;20205;-84
2023/09/29 10:58:59;;;;;;;4.00;3.05;;;;;;;;;;5034258;28;20906;-83
2023/09/29 11:01:34;;;;;;;5.85;3.38;;;;;;;;;;5004208;28;20231;-82
2023/09/29 11:04:05;;;;;;;3.78;3.10;;;;;;;;;;5026566;28;20826;-82
2023/09/29 11:06:40;;;;;;;3.00;2.70;;;;;;;;;;5034036;28;20631;-79
2023/09/29 11:09:07;;;;;;;3.17;2.95;;;;;;;;;;5027259;28;20253;-81
2023/09/29 11:11:36;;;;;;;3.13;2.92;;;;;;;;;;5026204;28;20208;-78
2023/09/29 11:14:04;;;;;;;3.00;2.70;;;;;;;;;;5027913;28;20211;-83
2023/09/29 11:16:33;;;;;;;3.15;2.85;;;;;;;;;;5026564;28;20638;-84
2023/09/29 11:19:10;;;;;;;3.10;2.40;;;;;;;;;;5023193;28;20318;-82
2023/09/29 11:21:38;;;;;;;3.97;2.72;;;;;;;;;;5029127;28;20321;-85
2023/09/29 11:24:07;;;;;;;3.70;3.00;;;;;;;;;;5022451;28;20877;-83
2023/09/29 11:26:34;;;;;;;3.35;3.05;;;;;;;;;;5020664;28;20211;-80
2023/09/29 11:29:02;;;;;;;4.97;3.10;;;;;;;;;;5027823;28;20203;-83
2023/09/29 11:31:30;;;;;;;3.33;2.90;;;;;;;;;;5042923;28;20199;-86
2023/09/29 11:33:57;;;;;;;4.05;2.95;;;;;;;;;;5038663;28;20286;-85
2023/09/29 11:36:29;;;;;;;5.00;2.90;;;;;;;;;;5011352;28;20204;-81
2023/09/29 11:38:57;;;;;;;5.78;2.90;;;;;;;;;;5033473;28;20203;-83
2023/09/29 11:41:25;;;;;;;3.47;3.17;;;;;;;;;;5028026;28;20219;-83
2023/09/29 11:43:53;;;;;;;3.05;2.75;;;;;;;;;;5023578;28;20735;-83
2023/09/29 11:46:21;;;;;;;4.90;3.00;;;;;;;;;;5043350;28;20219;-85
2023/09/29 11:48:48;;;;;;;5.70;2.92;;;;;;;;;;5020205;28;20202;-81
2023/09/29 11:51:16;;;;;;;4.07;2.95;;;;;;;;;;5034006;28;20233;-84
2023/09/29 11:53:44;;;;;;;6.22;2.80;;;;;;;;;;5020772;28;20230;-85
2023/09/29 11:56:12;;;;;;;4.47;2.63;;;;;;;;;;5022696;28;20278;-84
2023/09/29 11:58:39;;;;;;;5.35;2.85;;;;;;;;;;5030569;28;20293;-84
2023/09/29 12:01:08;;;;;;;3.80;2.90;;;;;;;;;;5025164;28;20759;-83
2023/09/29 12:03:36;;;;;;;3.55;2.72;;;;;;;;;;5012933;28;20257;-85
2023/09/29 12:06:04;;;;;;;3.35;2.88;;;;;;;;;;5040482;28;20222;-83
2023/09/29 12:08:32;;;;;;;5.60;3.15;;;;;;;;;;5028997;28;20512;-80
2023/09/29 12:11:00;;;;;;;3.65;3.20;;;;;;;;;;5025404;28;20293;-85
2023/09/29 12:13:29;;;;;;;5.03;2.78;;;;;;;;;;5026256;28;20651;-83
2023/09/29 12:15:56;;;;;;;3.65;3.30;;;;;;;;;;5025800;28;20226;-83
2023/09/29 12:18:26;;;;;;;3.53;3.10;;;;;;;;;;5031514;28;20211;-83
2023/09/29 12:20:56;;;;;;;3.95;2.90;;;;;;;;;;5038918;28;20285;-84
2023/09/29 12:23:23;;;;;;;4.32;3.05;;;;;;;;;;5028680;28;20211;-83
2023/09/29 12:25:51;;;;;;;3.67;3.15;;;;;;;;;;5026256;28;20226;-83
2023/09/29 12:28:19;;;;;;;4.55;3.13;;;;;;;;;;5023224;28;20226;-84
2023/09/29 12:30:47;;;;;;;3.72;2.95;;;;;;;;;;5022469;28;20207;-82
2023/09/29 12:33:15;;;;;;;4.07;2.95;;;;;;;;;;5027890;28;20613;-83
2023/09/29 12:35:42;;;;;;;6.82;3.25;;;;;;;;;;5022484;28;20232;-81
2023/09/29 12:38:10;;;;;;;3.42;3.05;;;;;;;;;;5026936;28;20251;-80
2023/09/29 12:40:37;;;;;;;6.50;2.95;;;;;;;;;;5019796;28;20214;-80
2023/09/29 12:43:04;;;;;;;5.30;3.38;;;;;;;;;;5033522;28;20203;-83
2023/09/29 12:45:32;;;;;;;4.40;3.08;;;;;;;;;;5024207;28;20753;-85
2023/09/29 12:48:00;;;;;;;3.05;2.85;;;;;;;;;;5027276;28;20250;-81
2023/09/29 12:50:31;;;;;;;3.88;2.80;;;;;;;;;;5027197;28;20202;-86
2023/09/29 12:52:59;;;;;;;5.93;3.10;;;;;;;;;;5026572;28;20195;-83
2023/09/29 12:55:26;;;;;;;2.70;2.50;;;;;;;;;;5023362;28;20254;-83
2023/09/29 12:57:54;;;;;;;2.92;2.40;;;;;;;;;;5017383;28;20326;-79
2023/09/29 13:00:22;;;;;;;4.00;2.30;;;;;;;;;;5024804;28;20763;-80
2023/09/29 13:02:53;;;;;;;3.53;2.42;;;;;;;;;;5038786;28;20238;-85
2023/09/29 13:05:22;;;;;;;5.72;3.97;;;;;;;;;;5025360;28;20222;-84
2023/09/29 13:07:51;;;;;;;4.13;2.88;;;;;;;;;;5034016;28;20202;-84
2023/09/29 13:10:20;;;;;;;2.72;2.53;;;;;;;;;;5011924;28;20203;-85
2023/09/29 13:12:54;;;;;;;5.40;2.60;;;;;;;;;;5029782;28;20269;-86
2023/09/29 13:15:22;;;;;;;4.00;2.50;;;;;;;;;;5015383;28;20238;-82
2023/09/29 13:17:51;;;;;;;2.92;2.60;;;;;;;;;;5014918;28;20289;-84
2023/09/29 13:20:19;;;;;;;2.65;2.45;;;;;;;;;;5017475;28;20211;-83
2023/09/29 13:22:49;;;;;;;3.63;2.30;;;;;;;;;;5033237;28;20249;-84
2023/09/29 13:25:18;;;;;;;3.45;2.35;;;;;;;;;;5004612;28;20661;-82
2023/09/29 13:27:46;;;;;;;2.97;2.47;;;;;;;;;;5031774;28;20268;-80
2023/09/29 13:30:16;;;;;;;4.25;2.60;;;;;;;;;;5029594;28;21371;-82
2023/09/29 13:32:45;;;;;;;3.30;2.72;;;;;;;;;;5030241;28;20293;-82
2023/09/29 13:35:13;;;;;;;3.47;2.38;;;;;;;;;;5023824;28;20292;-84
2023/09/29 13:37:42;;;;;;;3.88;2.42;;;;;;;;;;5025921;28;20741;-82
2023/09/29 13:40:10;;;;;;;4.65;2.58;;;;;;;;;;5003525;28;20207;-79
2023/09/29 13:42:38;;;;;;;4.80;2.50;;;;;;;;;;5024409;28;20615;-82
2023/09/29 13:45:05;;;;;;;3.20;2.90;;;;;;;;;;5023598;28;20222;-81
2023/09/29 13:47:34;;;;;;;4.40;3.13;;;;;;;;;;5027867;28;20207;-82
2023/09/29 13:50:02;;;;;;;5.25;2.80;;;;;;;;;;5014485;28;20258;-83
2023/09/29 13:52:30;;;;;;;4.97;2.63;;;;;;;;;;5003342;28;20212;-78
2023/09/29 13:54:58;;;;;;;3.30;3.00;;;;;;;;;;5027002;28;20228;-81
2023/09/29 13:57:26;;;;;;;3.33;2.67;;;;;;;;;;5031430;28;20424;-80
2023/09/29 13:59:53;;;;;;;4.13;2.53;;;;;;;;;;5007174;28;20239;-80
2023/09/29 14:02:21;;;;;;;4.88;3.10;;;;;;;;;;5035966;28;20614;-79
2023/09/29 14:04:48;;;;;;;4.40;2.85;;;;;;;;;;5028340;28;20225;-82
2023/09/29 14:07:16;;;;;;;4.95;2.80;;;;;;;;;;5042165;28;20198;-84
2023/09/29 14:09:44;;;;;;;4.32;2.95;;;;;;;;;;5023324;28;20282;-83
2023/09/29 14:12:11;;;;;;;6.38;3.00;;;;;;;;;;5013025;28;20203;-81
2023/09/29 14:14:40;;;;;;;5.70;2.88;;;;;;;;;;5054449;28;20230;-81
2023/09/29 14:17:07;;;;;;;4.60;3.35;;;;;;;;;;5017477;28;20583;-82
2023/09/29 14:19:35;;;;;;;3.92;3.10;;;;;;;;;;5020904;28;20208;-80
2023/09/29 14:22:03;;;;;;;5.97;2.83;;;;;;;;;;5021644;28;20231;-80
2023/09/29 14:24:32;;;;;;;3.83;3.10;;;;;;;;;;5032549;28;20229;-82
2023/09/29 14:27:00;;;;;;;3.53;2.97;;;;;;;;;;5025919;28;20199;-82
2023/09/29 14:29:28;;;;;;;4.07;3.20;;;;;;;;;;5022445;28;20280;-82
2023/09/29 14:31:56;;;;;;;5.00;3.47;;;;;;;;;;5023379;28;20231;-83
2023/09/29 14:34:23;;;;;;;4.78;3.05;;;;;;;;;;5020255;28;20218;-83
2023/09/29 14:36:51;;;;;;;5.65;3.90;;;;;;;;;;5030369;28;20413;-83
2023/09/29 14:39:19;;;;;;;4.10;3.30;;;;;;;;;;5034984;28;20982;-84
2023/09/29 14:41:48;;;;;;;2.60;2.40;;;;;;;;;;5027823;28;20697;-82
2023/09/29 14:44:15;;;;;;;1.83;1.50;;;;;;;;;;5027494;28;20223;-83
2023/09/29 14:46:43;;;;;;;2.60;2.20;;;;;;;;;;4998131;28;20228;-79
2023/09/29 14:49:11;;;;;;;2.15;1.95;;;;;;;;;;5021442;28;20206;-83
2023/09/29 14:51:39;;;;;;;2.33;2.10;;;;;;;;;;5009082;28;20222;-81